Time;durP1;ratioP1;P1;durP2;ratioP2;P2;SDS_P1;SDS_P2;PMS_P1;PMS_P2;Temp;Humidity;BMP_temperature;BMP_pressure;BME280_temperature;BME280_humidity;BME280_pressure;Samples;Min_cycle;Max_cycle;Signal;HPM_P1;HPM_P2
2022/06/17 00:01:59;;;;;;;7.18;6.15;;;;;;;22.58;74.55;102237.03;7390505;19;20006;-44
2022/06/17 00:04:28;;;;;;;11.38;6.50;;;;;;;22.41;75.77;102232.94;7388534;19;20030;-43
2022/06/17 00:06:59;;;;;;;9.23;6.07;;;;;;;22.43;75.00;102237.19;7390246;19;20018;-44
2022/06/17 00:09:31;;;;;;;6.50;5.85;;;;;;;22.25;77.20;102238.47;7389292;19;20018;-43
2022/06/17 00:12:00;;;;;;;7.65;6.25;;;;;;;22.49;76.17;102237.72;7390112;19;20014;-43
2022/06/17 00:15:11;;;;;;;8.10;6.47;;;;;;;22.67;74.31;102239.06;7389499;19;20514;-42
2022/06/17 00:17:22;;;;;;;;;;;;;;;22.54;75.80;102243.56;7390268;19;20023;-43
2022/06/17 00:19:51;;;;;;;8.38;5.85;;;;;;;22.33;76.18;102240.66;7395460;19;19926;-45
2022/06/17 00:22:20;;;;;;;7.95;6.13;;;;;;;22.41;75.58;102238.28;7396889;19;20022;-45
2022/06/17 00:24:51;;;;;;;6.82;6.13;;;;;;;22.35;76.42;102236.03;7396015;19;20019;-43
2022/06/17 00:27:19;;;;;;;8.45;6.38;;;;;;;22.33;76.41;102237.97;7397434;19;20022;-43
2022/06/17 00:29:51;;;;;;;8.95;5.85;;;;;;;22.26;77.14;102241.03;7394532;19;20026;-44
2022/06/17 00:32:20;;;;;;;7.82;5.68;;;;;;;22.13;77.42;102237.53;7395762;19;20022;-43
2022/06/17 00:34:49;;;;;;;7.57;6.38;;;;;;;22.07;78.48;102232.66;7395528;19;20022;-43
2022/06/17 00:37:19;;;;;;;7.05;5.95;;;;;;;22.14;77.54;102236.59;7396081;19;20015;-44
2022/06/17 00:39:47;;;;;;;7.43;5.63;;;;;;;22.05;76.78;102234.56;7395711;19;20013;-43
2022/06/17 00:42:19;;;;;;;9.27;6.53;;;;;;;22.11;77.00;102234.97;7396911;19;20029;-46
2022/06/17 00:44:55;;;;;;;9.63;6.15;;;;;;;21.97;78.28;102239.59;7394714;19;20018;-43
2022/06/17 00:47:29;;;;;;;8.27;5.85;;;;;;;22.25;77.11;102244.69;7395734;19;20014;-43
2022/06/17 00:50:03;;;;;;;7.70;6.20;;;;;;;21.96;77.45;102249.41;7396017;19;20019;-43
2022/06/17 00:52:39;;;;;;;8.15;6.18;;;;;;;22.13;77.85;102245.56;7395395;19;20025;-44
2022/06/17 00:55:19;;;;;;;9.98;6.38;;;;;;;22.27;76.57;102260.59;7396054;19;20018;-43
2022/06/17 00:57:47;;;;;;;8.38;6.30;;;;;;;22.15;77.02;102251.66;7396761;19;20018;-43
2022/06/17 01:00:25;;;;;;;7.45;5.80;;;;;;;22.11;77.00;102252.81;7393603;19;20028;-43
2022/06/17 01:02:57;;;;;;;7.75;6.28;;;;;;;22.01;76.77;102246.41;7395874;19;20034;-43
2022/06/17 01:05:32;;;;;;;9.05;6.22;;;;;;;21.90;77.61;102244.50;7392082;19;20011;-43
2022/06/17 01:08:12;;;;;;;8.80;6.35;;;;;;;21.98;76.95;102241.28;7396591;19;20026;-42
2022/06/17 01:10:40;;;;;;;7.75;6.10;;;;;;;21.89;77.50;102241.00;7395388;19;20115;-42
2022/06/17 01:13:11;;;;;;;9.55;6.30;;;;;;;22.10;76.33;102237.75;7393456;19;20090;-42
2022/06/17 01:15:45;;;;;;;7.03;5.15;;;;;;;22.01;76.52;102244.59;7394342;19;20014;-42
2022/06/17 01:18:15;;;;;;;8.40;6.05;;;;;;;21.79;77.03;102237.22;7393861;19;20491;-43
2022/06/17 01:20:55;;;;;;;8.60;6.10;;;;;;;21.75;77.27;102238.44;7394332;19;20013;-42
2022/06/17 01:23:27;;;;;;;9.13;5.90;;;;;;;22.01;74.30;102233.94;7394248;19;20011;-42
2022/06/17 01:25:57;;;;;;;6.57;5.93;;;;;;;21.84;74.69;102239.59;7396721;19;20011;-42
2022/06/17 01:28:26;;;;;;;7.85;6.20;;;;;;;21.83;75.63;102233.38;7393854;19;20026;-42
2022/06/17 01:30:58;;;;;;;9.25;6.20;;;;;;;21.84;75.96;102239.59;7392346;19;20022;-42
2022/06/17 01:33:28;;;;;;;;;;;;;;;22.01;74.50;102243.72;7394210;19;20018;-42
2022/06/17 01:36:04;;;;;;;8.73;6.18;;;;;;;21.88;75.10;102247.28;7395268;19;20263;-42
2022/06/17 01:38:38;;;;;;;8.85;6.35;;;;;;;21.87;74.59;102240.22;7395537;19;20019;-42
2022/06/17 01:41:08;;;;;;;8.38;6.32;;;;;;;21.82;75.91;102242.38;7393617;19;20021;-42
2022/06/17 01:43:42;;;;;;;8.13;6.30;;;;;;;21.73;75.68;102237.66;7392798;19;20523;-42
2022/06/17 01:46:16;;;;;;;7.88;6.22;;;;;;;21.74;75.46;102239.38;7393926;19;20344;-42
2022/06/17 01:48:47;;;;;;;;;;;;;;;21.67;77.40;102241.63;7395419;19;20031;-43
2022/06/17 01:51:18;;;;;;;6.72;5.85;;;;;;;21.72;76.06;102235.94;7393536;19;19926;-42
2022/06/17 01:53:54;;;;;;;8.23;6.00;;;;;;;21.74;76.00;102240.22;7393258;19;20503;-42
2022/06/17 01:56:28;;;;;;;8.70;6.60;;;;;;;21.65;77.89;102237.34;7393363;19;20010;-42
2022/06/17 01:59:03;;;;;;;12.90;7.22;;;;;;;21.64;77.49;102246.31;7392199;19;20447;-42
2022/06/17 02:01:34;;;;;;;8.23;6.35;;;;;;;21.69;78.26;102238.84;7393122;19;20049;-43
2022/06/17 02:04:10;;;;;;;7.93;6.32;;;;;;;21.60;77.63;102240.31;7392374;19;20018;-44
2022/06/17 02:06:46;;;;;;;9.93;6.90;;;;;;;21.61;77.83;102242.03;7394147;19;20014;-43
2022/06/17 02:09:18;;;;;;;12.77;7.35;;;;;;;21.80;76.07;102232.78;7392741;19;20018;-45
2022/06/17 02:11:51;;;;;;;11.63;6.97;;;;;;;21.88;76.24;102241.06;7393026;19;20021;-43
2022/06/17 02:14:22;;;;;;;9.90;7.40;;;;;;;21.73;77.31;102241.19;7391365;19;20014;-43
2022/06/17 02:16:59;;;;;;;13.23;7.97;;;;;;;21.72;77.33;102236.81;7392342;19;20091;-43
2022/06/17 02:19:39;;;;;;;10.45;7.57;;;;;;;21.56;79.35;102246.81;7393628;19;20077;-43
2022/06/17 02:22:13;;;;;;;8.93;7.60;;;;;;;21.64;79.26;102249.00;7392383;19;20015;-43
2022/06/17 02:24:46;;;;;;;13.60;8.55;;;;;;;21.71;78.07;102239.59;7390991;19;20418;-43
2022/06/17 02:27:16;;;;;;;10.30;7.88;;;;;;;21.66;78.85;102244.38;7393445;19;20006;-43
2022/06/17 02:29:47;;;;;;;10.93;8.10;;;;;;;21.69;78.92;102239.72;7391034;19;20018;-43
2022/06/17 02:32:17;;;;;;;10.15;7.35;;;;;;;21.63;78.49;102236.59;7393380;19;20494;-44
2022/06/17 02:34:52;;;;;;;9.63;7.75;;;;;;;21.65;79.17;102230.22;7391838;19;20479;-43
2022/06/17 02:37:22;;;;;;;11.25;8.55;;;;;;;21.58;80.38;102234.25;7392024;19;20333;-45
2022/06/17 02:39:57;;;;;;;13.02;8.00;;;;;;;21.68;79.13;102232.66;7392280;19;20015;-43
2022/06/17 02:42:30;;;;;;;7.95;6.85;;;;;;;21.67;80.13;102230.94;7393559;19;20032;-44
2022/06/17 02:45:03;;;;;;;11.95;7.95;;;;;;;21.51;80.61;102223.16;7392324;19;20022;-43
2022/06/17 02:47:33;;;;;;;10.43;8.00;;;;;;;21.57;80.61;102229.88;7392150;19;20038;-42
2022/06/17 02:50:03;;;;;;;9.43;7.95;;;;;;;21.51;81.08;102220.47;7391273;19;20018;-44
2022/06/17 02:52:37;;;;;;;10.55;8.10;;;;;;;21.61;81.05;102218.03;7391302;19;20014;-42
2022/06/17 02:55:15;;;;;;;12.68;8.93;;;;;;;21.49;81.05;102216.16;7391379;19;20015;-44
2022/06/17 02:57:47;;;;;;;9.30;8.30;;;;;;;21.49;82.06;102217.03;7391638;19;20078;-43
2022/06/17 03:00:20;;;;;;;10.55;8.40;;;;;;;21.39;82.62;102214.16;7391710;19;20345;-43
2022/06/17 03:02:52;;;;;;;11.25;8.48;;;;;;;21.46;83.17;102208.38;7391737;19;20006;-42
2022/06/17 03:05:25;;;;;;;12.85;9.10;;;;;;;21.56;82.57;102223.69;7390909;19;20046;-43
2022/06/17 03:07:57;;;;;;;15.88;8.60;;;;;;;21.65;81.49;102219.53;7390927;19;20018;-43
2022/06/17 03:10:36;;;;;;;11.18;8.75;;;;;;;21.53;81.81;102220.38;7389786;19;20014;-43
2022/06/17 03:13:11;;;;;;;13.65;9.55;;;;;;;21.74;80.57;102229.56;7391015;19;20022;-43
2022/06/17 03:15:43;;;;;;;14.13;9.95;;;;;;;21.75;79.34;102233.09;7393006;19;20066;-43
2022/06/17 03:18:13;;;;;;;10.52;9.43;;;;;;;21.54;81.14;102236.25;7390992;19;20014;-43
2022/06/17 03:20:45;;;;;;;12.27;8.95;;;;;;;21.45;83.37;102239.53;7392157;19;20015;-43
2022/06/17 03:23:19;;;;;;;15.35;9.98;;;;;;;21.40;84.27;102239.00;7391393;19;20018;-45
2022/06/17 03:25:59;;;;;;;13.65;10.20;;;;;;;21.47;85.48;102242.09;7388902;19;20108;-44
2022/06/17 03:28:31;;;;;;;12.45;9.80;;;;;;;21.31;84.10;102244.97;7390509;19;20022;-44
2022/06/17 03:31:07;;;;;;;14.82;9.80;;;;;;;21.27;85.55;102252.28;7391758;19;20035;-45
2022/06/17 03:33:41;;;;;;;13.02;9.88;;;;;;;21.36;85.86;102254.34;7391078;19;20018;-43
2022/06/17 03:36:17;;;;;;;12.18;10.88;;;;;;;21.41;85.69;102252.22;7392846;19;20026;-47
2022/06/17 03:38:49;;;;;;;12.13;10.25;;;;;;;21.31;85.83;102258.28;7405608;19;20019;-44
2022/06/17 03:41:26;;;;;;;14.18;10.70;;;;;;;21.13;89.38;102261.19;7406150;19;20022;-43
2022/06/17 03:44:01;;;;;;;13.27;10.95;;;;;;;21.35;86.45;102262.44;7399887;19;20010;-43
2022/06/17 03:46:35;;;;;;;13.75;10.85;;;;;;;21.21;87.51;102263.38;7400374;19;20014;-47
2022/06/17 03:49:09;;;;;;;13.90;10.98;;;;;;;21.33;87.46;102254.53;7391273;19;20434;-44
2022/06/17 03:51:42;;;;;;;12.30;10.50;;;;;;;21.34;84.96;102261.59;7390308;19;20396;-43
2022/06/17 03:54:15;;;;;;;13.95;10.63;;;;;;;21.34;85.66;102256.25;7392228;19;20006;-43
2022/06/17 03:56:53;;;;;;;;;;;;;;;21.36;84.98;102258.81;7398592;19;20034;-43
2022/06/17 03:59:27;;;;;;;13.82;10.50;;;;;;;21.53;84.26;102261.22;7397712;19;20303;-44
2022/06/17 04:02:02;;;;;;;12.45;10.48;;;;;;;21.43;85.43;102263.66;7397586;19;20018;-43
2022/06/17 04:04:36;;;;;;;13.93;10.18;;;;;;;21.32;87.36;102266.19;7396309;19;20326;-42
2022/06/17 04:07:05;;;;;;;12.75;10.70;;;;;;;21.31;89.01;102264.47;7396657;19;20006;-45
2022/06/17 04:09:39;;;;;;;15.75;11.48;;;;;;;21.35;85.70;102257.09;7396128;19;20014;-43
2022/06/17 04:12:24;;;;;;;12.57;9.80;;;;;;;21.46;86.54;102254.56;7399339;19;20597;-43
2022/06/17 04:15:20;;;;;;;14.07;10.70;;;;;;;21.52;84.56;102262.19;7396683;19;20023;-45
2022/06/17 04:17:51;;;;;;;14.00;11.13;;;;;;;21.70;83.33;102262.75;7396428;19;20010;-44
2022/06/17 04:20:36;;;;;;;12.70;10.68;;;;;;;21.62;84.58;102264.22;7396226;19;20088;-43
2022/06/17 04:23:10;;;;;;;29.42;12.05;;;;;;;21.58;84.40;102267.09;7396295;19;20021;-43
2022/06/17 04:26:15;;;;;;;19.57;11.63;;;;;;;21.57;84.99;102262.72;7392484;19;20014;-44
2022/06/17 04:28:52;;;;;;;16.15;10.57;;;;;;;21.66;84.71;102258.56;7396728;19;20010;-43
2022/06/17 04:31:26;;;;;;;13.18;10.90;;;;;;;21.62;85.76;102253.56;7396855;19;20006;-43
2022/06/17 04:34:06;;;;;;;21.25;12.32;;;;;;;21.64;84.55;102257.00;7394401;19;20029;-43
2022/06/17 04:36:43;;;;;;;15.68;11.60;;;;;;;21.66;84.64;102255.06;7396627;19;20038;-44
2022/06/17 04:39:23;;;;;;;17.75;10.98;;;;;;;21.61;85.81;102247.38;7397160;19;20018;-46
2022/06/17 04:42:16;;;;;;;13.07;10.82;;;;;;;21.74;85.17;102245.56;7400148;19;20499;-43
2022/06/17 04:44:48;;;;;;;15.35;11.48;;;;;;;21.62;85.32;102253.56;7396780;19;20487;-46
2022/06/17 04:47:20;;;;;;;12.10;10.80;;;;;;;21.59;86.29;102252.81;7402100;19;20015;-43
2022/06/17 04:49:56;;;;;;;11.88;10.30;;;;;;;21.51;87.64;102246.28;7398401;19;20044;-44
2022/06/17 04:52:34;;;;;;;15.32;11.90;;;;;;;21.81;86.57;102237.13;7398850;19;20017;-43
2022/06/17 04:55:29;;;;;;;16.83;12.48;;;;;;;21.82;85.00;102231.72;7398394;19;20091;-44
2022/06/17 04:58:14;;;;;;;17.23;13.30;;;;;;;21.74;84.54;102229.56;7397364;19;20021;-43
2022/06/17 05:00:51;;;;;;;16.60;13.57;;;;;;;21.94;82.94;102235.31;7395425;19;20038;-43
2022/06/17 05:03:30;;;;;;;17.17;13.25;;;;;;;21.82;83.79;102233.50;7395281;19;20014;-45
2022/06/17 05:06:12;;;;;;;14.52;11.95;;;;;;;21.74;85.77;102234.88;7391888;19;20015;-47
2022/06/17 05:08:47;;;;;;;17.50;12.30;;;;;;;21.86;83.24;102238.50;7398753;19;20029;-43
2022/06/17 05:11:24;;;;;;;15.10;12.10;;;;;;;21.71;85.02;102240.44;7399298;19;20104;-43
2022/06/17 05:13:59;;;;;;;14.18;12.35;;;;;;;21.66;86.18;102247.91;7397972;19;20070;-43
2022/06/17 05:16:31;;;;;;;78.57;16.83;;;;;;;21.77;87.30;102258.69;7400032;19;20364;-43
2022/06/17 05:19:00;;;;;;;29.75;12.98;;;;;;;21.72;84.82;102244.81;7399719;19;20018;-43
2022/06/17 05:21:30;;;;;;;26.27;12.75;;;;;;;21.73;84.54;102240.34;7394408;19;20014;-44
2022/06/17 05:24:12;;;;;;;34.83;13.40;;;;;;;21.73;80.22;102235.00;7393211;19;20038;-49
2022/06/17 05:26:41;;;;;;;23.58;11.45;;;;;;;21.86;75.90;102243.84;7393018;19;20006;-43
2022/06/17 05:29:11;;;;;;;16.88;11.70;;;;;;;21.86;77.37;102246.53;7393980;19;20018;-44
2022/06/17 05:31:52;;;;;;;12.63;9.63;;;;;;;21.86;73.94;102241.19;7394849;19;20054;-44
2022/06/17 05:34:25;;;;;;;13.88;10.10;;;;;;;21.97;73.48;102237.78;7393494;19;20449;-46
2022/06/17 05:36:56;;;;;;;17.00;9.88;;;;;;;21.74;73.69;102240.22;7396457;19;20356;-46
2022/06/17 05:39:26;;;;;;;14.85;11.02;;;;;;;21.86;75.66;102235.84;7394477;19;20222;-47
2022/06/17 05:41:55;;;;;;;12.35;9.68;;;;;;;21.81;75.64;102243.34;7393983;19;20014;-44
2022/06/17 05:44:24;;;;;;;13.07;10.35;;;;;;;21.97;74.91;102245.78;7391628;19;20464;-43
2022/06/17 05:47:08;;;;;;;14.45;10.75;;;;;;;22.03;73.85;102237.34;7394562;19;20026;-44
2022/06/17 05:49:53;;;;;;;14.07;10.10;;;;;;;21.91;75.59;102233.72;7394054;19;20014;-43
2022/06/17 05:52:55;;;;;;;14.27;10.50;;;;;;;22.06;74.81;102238.94;7395407;19;20007;-44
2022/06/17 05:55:56;;;;;;;19.70;11.13;;;;;;;22.07;74.32;102238.81;7394403;19;20014;-44
2022/06/17 05:58:26;;;;;;;14.85;10.90;;;;;;;22.17;73.60;102232.84;7393308;19;20018;-48
2022/06/17 06:00:56;;;;;;;19.63;12.60;;;;;;;22.33;72.38;102243.31;7393553;19;20217;-43
2022/06/17 06:03:30;;;;;;;15.98;10.65;;;;;;;22.24;73.48;102244.81;7393321;19;20053;-49
2022/06/17 06:06:05;;;;;;;13.13;9.75;;;;;;;21.80;74.42;102251.44;7393209;19;20011;-43
2022/06/17 06:08:35;;;;;;;22.67;9.82;;;;;;;22.32;73.45;102245.09;7392792;19;20018;-43
2022/06/17 06:11:05;;;;;;;14.32;9.35;;;;;;;22.22;72.99;102249.38;7392559;19;20021;-46
2022/06/17 06:13:39;;;;;;;10.80;8.55;;;;;;;22.58;71.21;102245.94;7392360;19;20014;-43
2022/06/17 06:16:08;;;;;;;14.15;9.05;;;;;;;22.87;69.18;102242.06;7392408;19;20026;-43
2022/06/17 06:18:50;;;;;;;12.00;8.55;;;;;;;23.03;67.40;102239.97;7343597;19;20498;-44
2022/06/17 06:21:21;;;;;;;13.85;8.57;;;;;;;23.27;67.79;102236.44;7393751;19;20010;-43
2022/06/17 06:23:50;;;;;;;13.50;7.72;;;;;;;23.26;68.13;102240.94;7393131;19;20178;-44
2022/06/17 06:26:33;;;;;;;16.10;7.95;;;;;;;23.26;65.84;102232.06;7393119;19;20483;-43
2022/06/17 06:29:23;;;;;;;9.63;7.40;;;;;;;23.31;65.09;102228.06;7393571;19;20018;-43
2022/06/17 06:31:52;;;;;;;18.60;7.88;;;;;;;23.48;64.44;102239.28;7395966;19;20010;-44
2022/06/17 06:34:29;;;;;;;12.32;7.43;;;;;;;23.36;66.03;102235.72;7392759;19;20022;-48
2022/06/17 06:36:59;;;;;;;9.90;6.95;;;;;;;23.40;65.27;102231.00;7393547;19;20485;-43
2022/06/17 06:39:28;;;;;;;11.70;6.65;;;;;;;23.23;67.58;102230.47;7393425;19;20464;-45
2022/06/17 06:42:01;;;;;;;10.32;7.32;;;;;;;23.29;65.42;102231.81;7397436;19;20085;-43
2022/06/17 06:44:31;;;;;;;13.10;7.43;;;;;;;23.27;65.73;102234.63;7393570;19;20378;-43
2022/06/17 06:47:22;;;;;;;11.20;6.30;;;;;;;23.50;65.11;102226.66;7392527;19;20006;-42
2022/06/17 06:50:02;;;;;;;11.30;6.97;;;;;;;23.44;65.75;102216.41;7393128;19;20014;-43
2022/06/17 06:52:31;;;;;;;13.43;6.47;;;;;;;23.64;65.35;102213.06;7391728;19;20018;-43
2022/06/17 06:55:00;;;;;;;9.25;6.72;;;;;;;23.71;64.52;102217.91;7391250;19;20014;-43
2022/06/17 06:57:29;;;;;;;8.07;6.43;;;;;;;23.60;64.44;102229.47;7393077;19;20014;-43
2022/06/17 07:00:02;;;;;;;9.57;5.95;;;;;;;23.72;66.33;102208.94;7391889;19;20024;-42
2022/06/17 07:02:33;;;;;;;25.50;7.65;;;;;;;23.80;65.08;102210.03;7391926;19;20043;-43
2022/06/17 07:05:05;;;;;;;10.48;6.10;;;;;;;24.01;63.48;102206.66;7389712;19;20409;-42
2022/06/17 07:07:33;;;;;;;7.32;6.43;;;;;;;24.06;63.02;102199.09;7393829;19;20017;-43
2022/06/17 07:10:02;;;;;;;7.50;5.38;;;;;;;24.17;60.88;102203.59;7393323;19;20014;-43
2022/06/17 07:12:31;;;;;;;8.55;4.70;;;;;;;24.19;61.57;102199.81;7394732;19;20112;-43
2022/06/17 07:15:00;;;;;;;7.65;4.50;;;;;;;24.29;62.07;102202.59;7391078;19;20467;-43
2022/06/17 07:17:29;;;;;;;5.28;4.05;;;;;;;24.30;60.59;102198.97;7393179;19;20460;-43
2022/06/17 07:19:58;;;;;;;5.75;4.25;;;;;;;24.17;59.69;102203.59;7391190;19;20367;-44
2022/06/17 07:22:31;;;;;;;6.57;4.25;;;;;;;24.04;58.13;102195.69;7392383;19;20352;-47
2022/06/17 07:25:00;;;;;;;;;;;;;;;24.33;59.11;102187.16;7393103;19;20057;-43
2022/06/17 07:27:29;;;;;;;17.83;5.05;;;;;;;24.44;59.36;102184.41;7394317;19;19921;-42
2022/06/17 07:29:58;;;;;;;13.40;5.18;;;;;;;24.63;60.05;102186.50;7401147;19;20054;-42
2022/06/17 07:32:27;;;;;;;6.70;3.50;;;;;;;24.58;58.38;102194.00;7403970;19;20009;-43
2022/06/17 07:34:55;;;;;;;6.97;4.57;;;;;;;24.77;59.00;102196.03;7401089;19;20010;-42
2022/06/17 07:40:10;;;;;;;11.40;4.90;;;;;;;24.83;59.12;102202.72;7403127;19;20014;-43
2022/06/17 07:42:41;;;;;;;11.73;4.88;;;;;;;24.76;59.57;102205.09;7403415;19;20019;-43
2022/06/17 07:45:13;;;;;;;6.03;3.50;;;;;;;24.69;59.60;102195.84;7401618;19;20019;-43
2022/06/17 07:47:43;;;;;;;5.88;3.70;;;;;;;24.69;57.50;102203.91;7398380;19;20021;-43
2022/06/17 07:50:15;;;;;;;25.33;4.85;;;;;;;24.77;56.48;102203.25;7399749;19;20710;-44
2022/06/17 07:52:44;;;;;;;6.25;3.53;;;;;;;24.84;55.53;102209.81;7401499;19;20534;-44
2022/06/17 07:55:16;;;;;;;8.52;4.03;;;;;;;24.46;53.13;102208.44;7400869;19;20022;-43
2022/06/17 07:57:46;;;;;;;5.82;3.83;;;;;;;24.54;54.94;102205.97;7401212;19;20018;-43
2022/06/17 08:00:20;;;;;;;15.88;4.80;;;;;;;24.88;54.53;102204.03;7399334;19;20014;-43
2022/06/17 08:02:49;;;;;;;13.57;4.72;;;;;;;24.91;54.32;102208.31;7399799;19;20010;-43
2022/06/17 08:05:21;;;;;;;6.10;3.80;;;;;;;24.73;54.61;102207.16;7402062;19;20019;-43
2022/06/17 08:07:50;;;;;;;8.50;3.80;;;;;;;25.02;54.67;102212.78;7397426;19;20018;-43
2022/06/17 08:10:24;;;;;;;7.60;3.97;;;;;;;25.24;52.86;102214.50;7399322;19;20014;-43
2022/06/17 08:12:53;;;;;;;9.35;4.28;;;;;;;25.25;55.49;102213.50;7399323;19;20018;-43
2022/06/17 08:15:23;;;;;;;9.10;5.22;;;;;;;24.93;53.77;102217.09;7399416;19;20096;-43
2022/06/17 08:17:55;;;;;;;7.47;4.72;;;;;;;24.95;53.86;102227.69;7399378;19;20018;-43
2022/06/17 08:20:26;;;;;;;8.60;4.60;;;;;;;24.87;54.51;102220.25;7398714;19;20039;-43
2022/06/17 08:22:56;;;;;;;8.10;4.28;;;;;;;25.33;54.98;102216.44;7398828;19;20018;-43
2022/06/17 08:25:28;;;;;;;7.80;4.95;;;;;;;25.39;51.77;102207.84;7399437;19;20009;-43
2022/06/17 08:28:02;;;;;;;11.52;4.78;;;;;;;25.55;52.02;102210.06;7396603;19;20322;-42
2022/06/17 08:30:34;;;;;;;9.15;4.78;;;;;;;25.86;51.72;102207.41;7398997;19;20458;-44
2022/06/17 08:33:03;;;;;;;8.25;4.97;;;;;;;25.55;52.46;102218.13;7399044;19;20010;-45
2022/06/17 08:35:35;;;;;;;11.20;5.07;;;;;;;25.59;54.44;102220.53;7399390;19;20318;-43
2022/06/17 08:38:07;;;;;;;9.23;4.68;;;;;;;25.54;53.59;102216.41;7400316;19;20352;-44
2022/06/17 08:40:50;;;;;;;44.28;7.28;;;;;;;25.82;54.89;102219.41;7397632;19;20452;-43
2022/06/17 08:43:43;;;;;;;8.80;4.65;;;;;;;26.04;53.81;102225.59;7398349;19;20049;-43
2022/06/17 08:46:27;;;;;;;9.40;4.65;;;;;;;25.66;53.36;102222.56;7397765;19;20018;-44
2022/06/17 08:49:17;;;;;;;7.38;4.28;;;;;;;25.81;48.85;102220.38;7396841;19;20010;-43
2022/06/17 08:52:00;;;;;;;7.07;4.05;;;;;;;25.69;49.52;102206.19;7399448;19;20814;-43
2022/06/17 08:54:41;;;;;;;8.90;4.35;;;;;;;25.85;49.66;102216.44;7397148;19;20022;-44
2022/06/17 08:57:21;;;;;;;9.23;4.28;;;;;;;26.27;48.88;102207.41;7399376;19;20013;-43
2022/06/17 09:00:05;;;;;;;9.50;4.45;;;;;;;26.33;48.47;102214.09;7412508;19;20007;-45
2022/06/17 09:02:52;;;;;;;61.90;8.27;;;;;;;26.02;47.06;102216.81;7410385;19;20039;-47
2022/06/17 09:05:35;;;;;;;8.95;4.55;;;;;;;25.81;47.60;102217.69;7406371;19;20050;-44
2022/06/17 09:08:20;;;;;;;7.82;3.95;;;;;;;25.85;47.40;102211.06;7403958;19;20017;-43
2022/06/17 09:11:04;;;;;;;7.78;4.60;;;;;;;26.10;46.36;102210.78;7400259;19;20022;-43
2022/06/17 09:13:43;;;;;;;7.32;3.80;;;;;;;26.48;46.66;102206.47;7351061;19;20014;-43
2022/06/17 09:16:22;;;;;;;19.73;5.72;;;;;;;26.69;46.38;102203.69;7398751;19;20017;-43
2022/06/17 09:18:56;;;;;;;8.55;4.10;;;;;;;26.40;45.90;102197.25;7398145;19;20014;-43
2022/06/17 09:21:29;;;;;;;51.95;11.43;;;;;;;26.69;47.97;102203.69;7397738;19;20430;-43
2022/06/17 09:24:04;;;;;;;25.17;6.15;;;;;;;26.76;46.39;102210.22;7396274;19;20015;-43
2022/06/17 09:26:40;;;;;;;6.45;4.20;;;;;;;26.33;46.16;102198.78;7396439;19;20341;-42
2022/06/17 09:29:18;;;;;;;5.72;4.00;;;;;;;26.45;46.44;102198.69;7396130;19;20094;-44
2022/06/17 09:31:50;;;;;;;10.43;4.10;;;;;;;26.02;46.51;102200.69;7396924;19;20365;-43
2022/06/17 09:34:25;;;;;;;9.27;4.10;;;;;;;26.59;45.26;102199.16;7395235;19;20017;-43
2022/06/17 09:37:02;;;;;;;10.25;5.35;;;;;;;26.84;44.12;102215.75;7398767;19;20018;-45
2022/06/17 09:39:45;;;;;;;7.38;3.78;;;;;;;26.89;45.46;102208.13;7398075;19;20345;-44
2022/06/17 09:42:20;;;;;;;8.45;3.97;;;;;;;26.89;44.00;102209.94;7398346;19;20018;-43
2022/06/17 09:44:57;;;;;;;9.43;4.13;;;;;;;27.21;43.62;102198.88;7394453;19;20007;-44
2022/06/17 09:47:33;;;;;;;7.57;3.92;;;;;;;27.10;44.61;102197.19;7394419;19;20062;-43
2022/06/17 09:50:07;;;;;;;7.97;3.90;;;;;;;26.76;43.47;102200.31;7395040;19;20017;-43
2022/06/17 09:52:40;;;;;;;7.35;4.22;;;;;;;27.19;42.42;102194.63;7394421;19;20115;-44
2022/06/17 09:55:16;;;;;;;6.07;3.85;;;;;;;26.72;42.89;102193.53;7396838;19;20127;-43
2022/06/17 09:57:50;;;;;;;7.80;4.00;;;;;;;26.29;45.28;102186.63;7396111;19;20015;-44
2022/06/17 10:00:25;;;;;;;5.97;3.92;;;;;;;26.68;43.53;102192.09;7395668;19;20022;-43
2022/06/17 10:03:00;;;;;;;6.97;4.30;;;;;;;27.38;42.49;102199.16;7395985;19;20014;-44
2022/06/17 10:05:39;;;;;;;12.85;4.38;;;;;;;27.85;42.81;102191.03;7396196;19;20014;-44
2022/06/17 10:08:21;;;;;;;8.68;3.58;;;;;;;27.68;41.38;102194.53;7393983;19;20371;-44
2022/06/17 10:10:57;;;;;;;8.82;3.95;;;;;;;27.54;41.53;102193.16;7395289;19;20502;-43
2022/06/17 10:13:33;;;;;;;9.40;4.00;;;;;;;28.05;41.68;102185.59;7397828;19;20018;-44
2022/06/17 10:19:07;;;;;;;12.13;4.47;;;;;;;27.97;41.99;102192.56;7394665;19;20011;-44
2022/06/17 10:21:53;;;;;;;7.28;4.30;;;;;;;27.77;40.34;102188.28;7394985;19;20014;-44
2022/06/17 10:24:32;;;;;;;12.05;4.07;;;;;;;27.91;40.87;102181.53;7394051;19;20011;-44
2022/06/17 10:27:18;;;;;;;10.18;3.90;;;;;;;28.19;39.81;102189.66;7392378;19;20030;-44
2022/06/17 10:30:01;;;;;;;9.82;4.28;;;;;;;28.14;40.39;102173.91;7394288;19;20483;-44
2022/06/17 10:32:36;;;;;;;9.65;3.80;;;;;;;28.40;39.80;102174.03;7394805;19;20018;-43
2022/06/17 10:35:09;;;;;;;7.25;3.67;;;;;;;28.26;38.18;102177.25;7392117;19;20022;-43
2022/06/17 10:37:38;;;;;;;6.35;4.20;;;;;;;27.58;40.23;102173.88;7394713;19;20054;-43
2022/06/17 10:40:11;;;;;;;11.80;3.75;;;;;;;28.29;40.71;102156.22;7395351;19;20018;-43
2022/06/17 10:42:40;;;;;;;7.07;3.60;;;;;;;28.60;37.56;102160.38;7394864;19;20019;-43
2022/06/17 10:45:16;;;;;;;6.63;3.17;;;;;;;28.38;38.25;102159.00;7394016;19;20016;-43
2022/06/17 10:47:52;;;;;;;9.13;3.60;;;;;;;27.96;37.68;102147.75;7393762;19;20065;-43
2022/06/17 10:50:24;;;;;;;6.82;3.00;;;;;;;28.00;40.35;102129.47;7395375;19;20022;-43
2022/06/17 10:52:58;;;;;;;12.47;4.00;;;;;;;28.47;38.91;102142.78;7396182;19;20523;-42
2022/06/17 10:55:32;;;;;;;4.18;2.95;;;;;;;28.89;39.78;102149.38;7394954;19;20011;-43
2022/06/17 10:58:19;;;;;;;7.72;3.75;;;;;;;28.81;37.85;102149.31;7395125;19;20022;-44
2022/06/17 11:00:59;;;;;;;6.35;3.78;;;;;;;28.95;37.37;102148.75;7396522;19;20015;-47
2022/06/17 11:03:34;;;;;;;7.93;4.03;;;;;;;28.94;37.66;102147.09;7393305;19;20019;-43
2022/06/17 11:06:07;;;;;;;9.95;3.92;;;;;;;28.88;36.79;102136.06;7397098;19;20011;-44
2022/06/17 11:08:43;;;;;;;9.68;3.55;;;;;;;29.24;34.91;102141.41;7395571;19;20480;-45
2022/06/17 11:13:56;;;;;;;5.65;3.55;;;;;;;29.76;35.70;102121.56;7393542;19;20039;-45
2022/06/17 11:16:28;;;;;;;8.73;3.63;;;;;;;29.89;35.20;102126.53;7395315;19;20392;-43
2022/06/17 11:19:04;;;;;;;3.85;2.78;;;;;;;29.06;34.13;102122.50;7394768;19;20019;-43
2022/06/17 11:21:38;;;;;;;27.13;4.07;;;;;;;29.56;35.71;102123.66;7395282;19;20045;-44
2022/06/17 11:24:09;;;;;;;11.00;3.58;;;;;;;29.70;33.59;102123.03;7393326;19;20019;-43
2022/06/17 11:26:39;;;;;;;15.07;3.92;;;;;;;29.60;35.82;102122.34;7395312;19;20019;-41
2022/06/17 11:29:21;;;;;;;13.50;3.70;;;;;;;30.31;34.03;102125.63;7393077;19;20349;-43
2022/06/17 11:31:51;;;;;;;9.40;3.65;;;;;;;30.80;33.08;102122.94;7395528;19;20015;-43
2022/06/17 11:34:31;;;;;;;11.05;4.18;;;;;;;31.54;31.76;102114.66;7391945;19;20380;-43
2022/06/17 11:37:09;;;;;;;5.13;2.92;;;;;;;31.94;30.78;102111.97;7393177;19;20010;-43
2022/06/17 11:39:40;;;;;;;6.03;2.83;;;;;;;31.91;29.26;102105.03;7394226;19;20018;-44
2022/06/17 11:42:19;;;;;;;7.78;2.70;;;;;;;31.36;29.14;102092.41;7393928;19;20029;-43
2022/06/17 11:44:54;;;;;;;10.43;2.88;;;;;;;31.83;29.89;102096.13;7391834;19;20023;-44
2022/06/17 11:47:26;;;;;;;4.05;2.70;;;;;;;31.42;28.62;102099.81;7393157;19;20035;-43
2022/06/17 11:50:02;;;;;;;3.55;2.72;;;;;;;30.37;30.61;102087.91;7393106;19;20015;-43
2022/06/17 11:52:35;;;;;;;5.57;2.75;;;;;;;31.25;29.51;102084.66;7393756;19;20017;-43
2022/06/17 11:55:05;;;;;;;15.00;3.38;;;;;;;32.83;29.78;102084.34;7392044;19;20025;-42
2022/06/17 11:57:39;;;;;;;186.80;14.73;;;;;;;33.34;27.89;102075.47;7391593;19;20364;-43
2022/06/17 12:00:24;;;;;;;15.18;3.30;;;;;;;33.27;28.08;102079.97;7391302;19;20096;-43
2022/06/17 12:02:58;;;;;;;15.73;4.40;;;;;;;34.19;26.98;102085.88;7390023;19;20025;-43
2022/06/17 12:05:32;;;;;;;15.48;4.55;;;;;;;33.59;26.61;102081.44;7393213;19;20519;-42